sensor_id;sensor_type;location;lat;lon;timestamp;temperature;humidity
10386;DHT22;34307;51.332;12.334;2023-04-12T00:01:45;3.30;99.90
10386;DHT22;34307;51.332;12.334;2023-04-12T00:04:13;3.30;99.90
10386;DHT22;34307;51.332;12.334;2023-04-12T00:06:41;3.40;99.90
10386;DHT22;34307;51.332;12.334;2023-04-12T00:09:15;3.20;99.90
10386;DHT22;34307;51.332;12.334;2023-04-12T00:11:43;3.20;99.90
10386;DHT22;34307;51.332;12.334;2023-04-12T00:14:11;3.30;99.90
10386;DHT22;34307;51.332;12.334;2023-04-12T00:16:39;3.20;99.90
10386;DHT22;34307;51.332;12.334;2023-04-12T00:19:07;3.20;99.90
10386;DHT22;34307;51.332;12.334;2023-04-12T00:21:35;3.20;99.90
10386;DHT22;34307;51.332;12.334;2023-04-12T00:24:03;3.30;99.90
10386;DHT22;34307;51.332;12.334;2023-04-12T00:26:34;3.20;99.90
10386;DHT22;34307;51.332;12.334;2023-04-12T00:29:02;3.10;99.90
10386;DHT22;34307;51.332;12.334;2023-04-12T00:31:29;3.20;99.90
10386;DHT22;34307;51.332;12.334;2023-04-12T00:33:57;3.10;99.90
10386;DHT22;34307;51.332;12.334;2023-04-12T00:36:25;3.20;99.90
10386;DHT22;34307;51.332;12.334;2023-04-12T00:38:56;3.20;99.90
10386;DHT22;34307;51.332;12.334;2023-04-12T00:41:25;3.20;99.90
10386;DHT22;34307;51.332;12.334;2023-04-12T00:43:55;3.20;99.90
10386;DHT22;34307;51.332;12.334;2023-04-12T00:46:23;3.20;99.90
10386;DHT22;34307;51.332;12.334;2023-04-12T00:48:51;3.10;99.90
10386;DHT22;34307;51.332;12.334;2023-04-12T00:51:22;3.10;99.90
10386;DHT22;34307;51.332;12.334;2023-04-12T00:53:51;3.20;99.90
10386;DHT22;34307;51.332;12.334;2023-04-12T00:56:20;3.20;99.90
10386;DHT22;34307;51.332;12.334;2023-04-12T00:58:49;3.10;99.90
10386;DHT22;34307;51.332;12.334;2023-04-12T01:01:19;3.20;99.90
10386;DHT22;34307;51.332;12.334;2023-04-12T01:03:47;3.20;99.90
10386;DHT22;34307;51.332;12.334;2023-04-12T01:06:24;3.20;99.90
10386;DHT22;34307;51.332;12.334;2023-04-12T01:09:05;3.20;99.90
10386;DHT22;34307;51.332;12.334;2023-04-12T01:11:43;3.20;99.90
10386;DHT22;34307;51.332;12.334;2023-04-12T01:14:16;3.10;99.90
10386;DHT22;34307;51.332;12.334;2023-04-12T01:16:49;3.10;99.90
10386;DHT22;34307;51.332;12.334;2023-04-12T01:19:32;3.20;99.90
10386;DHT22;34307;51.332;12.334;2023-04-12T01:22:10;3.20;99.90
10386;DHT22;34307;51.332;12.334;2023-04-12T01:24:47;3.20;99.90
10386;DHT22;34307;51.332;12.334;2023-04-12T01:27:28;3.20;99.90
10386;DHT22;34307;51.332;12.334;2023-04-12T01:30:02;3.10;99.90
10386;DHT22;34307;51.332;12.334;2023-04-12T01:32:38;3.10;99.90
10386;DHT22;34307;51.332;12.334;2023-04-12T01:35:07;3.10;99.90
10386;DHT22;34307;51.332;12.334;2023-04-12T01:37:37;3.10;99.90
10386;DHT22;34307;51.332;12.334;2023-04-12T01:40:06;3.10;99.90
10386;DHT22;34307;51.332;12.334;2023-04-12T01:42:36;3.20;99.90
10386;DHT22;34307;51.332;12.334;2023-04-12T01:45:06;3.10;99.90
10386;DHT22;34307;51.332;12.334;2023-04-12T01:47:34;3.00;99.90
10386;DHT22;34307;51.332;12.334;2023-04-12T01:50:11;3.10;99.90
10386;DHT22;34307;51.332;12.334;2023-04-12T01:52:44;3.10;99.90
10386;DHT22;34307;51.332;12.334;2023-04-12T01:55:13;3.10;99.90
10386;DHT22;34307;51.332;12.334;2023-04-12T01:57:44;3.10;99.90
10386;DHT22;34307;51.332;12.334;2023-04-12T02:00:15;3.10;99.90
10386;DHT22;34307;51.332;12.334;2023-04-12T02:02:43;3.10;99.90
10386;DHT22;34307;51.332;12.334;2023-04-12T02:05:14;3.10;99.90
10386;DHT22;34307;51.332;12.334;2023-04-12T02:07:42;3.10;99.90
10386;DHT22;34307;51.332;12.334;2023-04-12T02:10:12;3.10;99.90
10386;DHT22;34307;51.332;12.334;2023-04-12T02:12:42;3.10;99.90
10386;DHT22;34307;51.332;12.334;2023-04-12T02:15:10;3.10;99.90
10386;DHT22;34307;51.332;12.334;2023-04-12T02:17:39;3.10;99.90
10386;DHT22;34307;51.332;12.334;2023-04-12T02:20:07;3.10;99.90
10386;DHT22;34307;51.332;12.334;2023-04-12T02:22:37;3.20;99.90
10386;DHT22;34307;51.332;12.334;2023-04-12T02:25:05;3.30;99.90
10386;DHT22;34307;51.332;12.334;2023-04-12T02:27:33;3.40;99.90
10386;DHT22;34307;51.332;12.334;2023-04-12T02:30:03;3.40;99.90
10386;DHT22;34307;51.332;12.334;2023-04-12T02:32:31;3.30;99.90
10386;DHT22;34307;51.332;12.334;2023-04-12T02:35:09;3.30;99.90
10386;DHT22;34307;51.332;12.334;2023-04-12T02:37:38;3.30;99.90
10386;DHT22;34307;51.332;12.334;2023-04-12T02:40:07;3.40;99.90
10386;DHT22;34307;51.332;12.334;2023-04-12T02:42:37;3.40;99.90
10386;DHT22;34307;51.332;12.334;2023-04-12T02:45:08;3.40;99.60
10386;DHT22;34307;51.332;12.334;2023-04-12T02:47:36;3.50;99.10
10386;DHT22;34307;51.332;12.334;2023-04-12T02:50:05;3.50;98.50
10386;DHT22;34307;51.332;12.334;2023-04-12T02:52:33;3.50;97.80
10386;DHT22;34307;51.332;12.334;2023-04-12T02:55:01;3.50;97.20
10386;DHT22;34307;51.332;12.334;2023-04-12T02:57:29;3.50;96.90
10386;DHT22;34307;51.332;12.334;2023-04-12T02:59:57;3.50;96.50
10386;DHT22;34307;51.332;12.334;2023-04-12T03:02:26;3.60;96.00
10386;DHT22;34307;51.332;12.334;2023-04-12T03:04:54;3.60;95.50
10386;DHT22;34307;51.332;12.334;2023-04-12T03:07:22;3.60;94.80
10386;DHT22;34307;51.332;12.334;2023-04-12T03:09:50;3.60;94.70
10386;DHT22;34307;51.332;12.334;2023-04-12T03:12:19;3.60;94.30
10386;DHT22;34307;51.332;12.334;2023-04-12T03:14:46;3.50;93.70
10386;DHT22;34307;51.332;12.334;2023-04-12T03:17:14;3.50;93.70
10386;DHT22;34307;51.332;12.334;2023-04-12T03:19:43;3.50;93.50
10386;DHT22;34307;51.332;12.334;2023-04-12T03:22:11;3.40;93.40
10386;DHT22;34307;51.332;12.334;2023-04-12T03:24:39;3.40;93.30
10386;DHT22;34307;51.332;12.334;2023-04-12T03:27:11;3.50;93.60
10386;DHT22;34307;51.332;12.334;2023-04-12T03:29:39;3.50;93.30
10386;DHT22;34307;51.332;12.334;2023-04-12T03:32:07;3.50;93.20
10386;DHT22;34307;51.332;12.334;2023-04-12T03:34:36;3.50;93.10
10386;DHT22;34307;51.332;12.334;2023-04-12T03:37:05;3.50;92.80
10386;DHT22;34307;51.332;12.334;2023-04-12T03:39:33;3.50;92.70
10386;DHT22;34307;51.332;12.334;2023-04-12T03:42:01;3.50;92.50
10386;DHT22;34307;51.332;12.334;2023-04-12T03:44:29;3.50;92.80
10386;DHT22;34307;51.332;12.334;2023-04-12T03:46:58;3.50;92.40
10386;DHT22;34307;51.332;12.334;2023-04-12T03:49:26;3.60;92.10
10386;DHT22;34307;51.332;12.334;2023-04-12T03:51:54;3.50;92.00
10386;DHT22;34307;51.332;12.334;2023-04-12T03:54:24;3.60;91.80
10386;DHT22;34307;51.332;12.334;2023-04-12T03:56:51;3.60;91.60
10386;DHT22;34307;51.332;12.334;2023-04-12T03:59:19;3.60;91.50
10386;DHT22;34307;51.332;12.334;2023-04-12T04:01:47;3.60;91.30
10386;DHT22;34307;51.332;12.334;2023-04-12T04:04:15;3.60;91.20
10386;DHT22;34307;51.332;12.334;2023-04-12T04:06:43;3.60;91.20
10386;DHT22;34307;51.332;12.334;2023-04-12T04:09:12;3.60;91.20
10386;DHT22;34307;51.332;12.334;2023-04-12T04:11:41;3.60;91.50
10386;DHT22;34307;51.332;12.334;2023-04-12T04:14:09;3.70;91.50
10386;DHT22;34307;51.332;12.334;2023-04-12T04:16:36;3.60;91.50
10386;DHT22;34307;51.332;12.334;2023-04-12T04:19:04;3.60;91.60
10386;DHT22;34307;51.332;12.334;2023-04-12T04:21:32;3.70;91.70
10386;DHT22;34307;51.332;12.334;2023-04-12T04:24:00;3.70;91.60
10386;DHT22;34307;51.332;12.334;2023-04-12T04:26:29;3.70;91.50
10386;DHT22;34307;51.332;12.334;2023-04-12T04:29:01;3.70;91.40
10386;DHT22;34307;51.332;12.334;2023-04-12T04:31:31;3.70;91.30
10386;DHT22;34307;51.332;12.334;2023-04-12T04:34:02;3.70;91.20
10386;DHT22;34307;51.332;12.334;2023-04-12T04:36:34;3.70;91.10
10386;DHT22;34307;51.332;12.334;2023-04-12T04:39:03;3.70;90.90
10386;DHT22;34307;51.332;12.334;2023-04-12T04:41:31;3.80;90.90
10386;DHT22;34307;51.332;12.334;2023-04-12T04:44:08;3.80;90.80
10386;DHT22;34307;51.332;12.334;2023-04-12T04:46:36;3.90;90.70
10386;DHT22;34307;51.332;12.334;2023-04-12T04:49:05;3.90;90.40
10386;DHT22;34307;51.332;12.334;2023-04-12T04:51:33;4.00;90.40
10386;DHT22;34307;51.332;12.334;2023-04-12T04:54:02;4.00;90.00
10386;DHT22;34307;51.332;12.334;2023-04-12T04:56:31;4.10;89.70
10386;DHT22;34307;51.332;12.334;2023-04-12T04:58:59;4.10;89.10
10386;DHT22;34307;51.332;12.334;2023-04-12T05:01:29;4.10;88.70
10386;DHT22;34307;51.332;12.334;2023-04-12T05:03:57;4.20;88.70
10386;DHT22;34307;51.332;12.334;2023-04-12T05:06:25;4.20;88.20
10386;DHT22;34307;51.332;12.334;2023-04-12T05:08:53;4.30;88.10
10386;DHT22;34307;51.332;12.334;2023-04-12T05:11:22;4.40;88.00
10386;DHT22;34307;51.332;12.334;2023-04-12T05:13:50;4.40;87.60
10386;DHT22;34307;51.332;12.334;2023-04-12T05:16:18;4.50;86.90
10386;DHT22;34307;51.332;12.334;2023-04-12T05:18:47;4.50;86.40
10386;DHT22;34307;51.332;12.334;2023-04-12T05:21:15;4.60;86.20
10386;DHT22;34307;51.332;12.334;2023-04-12T05:23:46;4.60;85.70
10386;DHT22;34307;51.332;12.334;2023-04-12T05:26:14;4.60;85.30
10386;DHT22;34307;51.332;12.334;2023-04-12T05:28:42;4.70;84.80
10386;DHT22;34307;51.332;12.334;2023-04-12T05:31:10;4.70;84.30
10386;DHT22;34307;51.332;12.334;2023-04-12T05:33:38;4.80;84.00
10386;DHT22;34307;51.332;12.334;2023-04-12T05:36:08;4.80;83.50
10386;DHT22;34307;51.332;12.334;2023-04-12T05:38:36;4.90;83.20
10386;DHT22;34307;51.332;12.334;2023-04-12T05:41:04;5.00;83.30
10386;DHT22;34307;51.332;12.334;2023-04-12T05:43:32;5.10;82.20
10386;DHT22;34307;51.332;12.334;2023-04-12T05:46:03;5.10;81.40
10386;DHT22;34307;51.332;12.334;2023-04-12T05:48:33;5.20;81.30
10386;DHT22;34307;51.332;12.334;2023-04-12T05:51:04;5.20;81.20
10386;DHT22;34307;51.332;12.334;2023-04-12T05:53:33;5.30;80.80
10386;DHT22;34307;51.332;12.334;2023-04-12T05:56:01;5.30;80.50
10386;DHT22;34307;51.332;12.334;2023-04-12T05:58:29;5.20;80.50
10386;DHT22;34307;51.332;12.334;2023-04-12T06:01:03;5.30;80.30
10386;DHT22;34307;51.332;12.334;2023-04-12T06:03:31;5.40;80.40
10386;DHT22;34307;51.332;12.334;2023-04-12T06:05:59;5.50;79.70
10386;DHT22;34307;51.332;12.334;2023-04-12T06:08:28;5.50;79.00
10386;DHT22;34307;51.332;12.334;2023-04-12T06:10:57;5.60;78.90
10386;DHT22;34307;51.332;12.334;2023-04-12T06:13:25;5.60;78.90
10386;DHT22;34307;51.332;12.334;2023-04-12T06:15:53;6.00;84.50
10386;DHT22;34307;51.332;12.334;2023-04-12T06:18:21;6.20;81.90
10386;DHT22;34307;51.332;12.334;2023-04-12T06:20:49;6.40;82.40
10386;DHT22;34307;51.332;12.334;2023-04-12T06:23:17;6.50;81.30
10386;DHT22;34307;51.332;12.334;2023-04-12T06:25:46;6.80;79.70
10386;DHT22;34307;51.332;12.334;2023-04-12T06:28:15;6.60;77.80
10386;DHT22;34307;51.332;12.334;2023-04-12T06:30:43;6.50;76.40
10386;DHT22;34307;51.332;12.334;2023-04-12T06:33:11;6.50;75.60
10386;DHT22;34307;51.332;12.334;2023-04-12T06:35:39;6.60;76.20
10386;DHT22;34307;51.332;12.334;2023-04-12T06:38:07;6.60;74.70
10386;DHT22;34307;51.332;12.334;2023-04-12T06:40:37;6.40;74.10
10386;DHT22;34307;51.332;12.334;2023-04-12T06:43:05;6.30;75.00
10386;DHT22;34307;51.332;12.334;2023-04-12T06:45:35;6.30;74.70
10386;DHT22;34307;51.332;12.334;2023-04-12T06:48:03;6.30;75.00
10386;DHT22;34307;51.332;12.334;2023-04-12T06:50:31;6.30;75.10
10386;DHT22;34307;51.332;12.334;2023-04-12T06:52:59;6.40;74.90
10386;DHT22;34307;51.332;12.334;2023-04-12T06:55:26;6.40;74.90
10386;DHT22;34307;51.332;12.334;2023-04-12T06:57:54;6.50;75.00
10386;DHT22;34307;51.332;12.334;2023-04-12T07:00:23;6.60;75.00
10386;DHT22;34307;51.332;12.334;2023-04-12T07:02:52;6.70;74.70
10386;DHT22;34307;51.332;12.334;2023-04-12T07:05:21;6.80;74.70
10386;DHT22;34307;51.332;12.334;2023-04-12T07:07:48;6.90;73.80
10386;DHT22;34307;51.332;12.334;2023-04-12T07:10:16;7.00;73.60
10386;DHT22;34307;51.332;12.334;2023-04-12T07:12:44;7.10;73.70
10386;DHT22;34307;51.332;12.334;2023-04-12T07:15:12;7.20;72.60
10386;DHT22;34307;51.332;12.334;2023-04-12T07:17:41;7.30;72.30
10386;DHT22;34307;51.332;12.334;2023-04-12T07:20:11;7.40;71.80
10386;DHT22;34307;51.332;12.334;2023-04-12T07:22:39;7.50;71.50
10386;DHT22;34307;51.332;12.334;2023-04-12T07:25:07;7.60;71.40
10386;DHT22;34307;51.332;12.334;2023-04-12T07:27:36;7.70;71.30
10386;DHT22;34307;51.332;12.334;2023-04-12T07:30:05;7.80;71.50
10386;DHT22;34307;51.332;12.334;2023-04-12T07:32:33;7.90;70.60
10386;DHT22;34307;51.332;12.334;2023-04-12T07:35:01;8.00;70.00
10386;DHT22;34307;51.332;12.334;2023-04-12T07:37:30;8.10;69.40
10386;DHT22;34307;51.332;12.334;2023-04-12T07:39:58;8.30;69.30
10386;DHT22;34307;51.332;12.334;2023-04-12T07:42:26;8.40;68.40
10386;DHT22;34307;51.332;12.334;2023-04-12T07:44:54;8.50;68.00
10386;DHT22;34307;51.332;12.334;2023-04-12T07:47:21;8.60;67.30
10386;DHT22;34307;51.332;12.334;2023-04-12T07:49:49;8.80;66.80
10386;DHT22;34307;51.332;12.334;2023-04-12T07:52:18;8.80;66.00
10386;DHT22;34307;51.332;12.334;2023-04-12T07:54:47;8.90;65.60
10386;DHT22;34307;51.332;12.334;2023-04-12T07:57:15;9.00;65.90
10386;DHT22;34307;51.332;12.334;2023-04-12T07:59:42;9.20;64.90
10386;DHT22;34307;51.332;12.334;2023-04-12T08:02:10;9.30;64.80
10386;DHT22;34307;51.332;12.334;2023-04-12T08:04:38;9.50;64.50
10386;DHT22;34307;51.332;12.334;2023-04-12T08:07:10;9.70;63.60
10386;DHT22;34307;51.332;12.334;2023-04-12T08:09:37;9.90;62.10
10386;DHT22;34307;51.332;12.334;2023-04-12T08:12:07;10.20;59.80
10386;DHT22;34307;51.332;12.334;2023-04-12T08:14:35;10.50;58.50
10386;DHT22;34307;51.332;12.334;2023-04-12T08:17:06;10.50;57.00
10386;DHT22;34307;51.332;12.334;2023-04-12T08:19:33;10.50;56.50
10386;DHT22;34307;51.332;12.334;2023-04-12T08:22:02;10.70;56.20
10386;DHT22;34307;51.332;12.334;2023-04-12T08:24:31;10.70;55.80
10386;DHT22;34307;51.332;12.334;2023-04-12T08:27:21;10.80;55.40
10386;DHT22;34307;51.332;12.334;2023-04-12T08:29:49;10.90;54.90
10386;DHT22;34307;51.332;12.334;2023-04-12T08:32:17;10.90;54.30
10386;DHT22;34307;51.332;12.334;2023-04-12T08:34:45;10.90;53.40
10386;DHT22;34307;51.332;12.334;2023-04-12T08:37:13;10.90;53.90
10386;DHT22;34307;51.332;12.334;2023-04-12T08:39:42;11.10;53.80
10386;DHT22;34307;51.332;12.334;2023-04-12T08:42:10;11.40;53.10
10386;DHT22;34307;51.332;12.334;2023-04-12T08:44:42;11.50;50.90
10386;DHT22;34307;51.332;12.334;2023-04-12T08:47:10;11.40;52.00
10386;DHT22;34307;51.332;12.334;2023-04-12T08:50:11;11.50;52.40
10386;DHT22;34307;51.332;12.334;2023-04-12T08:52:41;11.70;51.80
10386;DHT22;34307;51.332;12.334;2023-04-12T08:55:09;11.70;51.50
10386;DHT22;34307;51.332;12.334;2023-04-12T08:57:39;11.70;51.80
10386;DHT22;34307;51.332;12.334;2023-04-12T09:00:10;11.90;51.40
10386;DHT22;34307;51.332;12.334;2023-04-12T09:02:40;12.20;50.00
10386;DHT22;34307;51.332;12.334;2023-04-12T09:05:12;12.20;47.70
10386;DHT22;34307;51.332;12.334;2023-04-12T09:07:40;12.30;46.60
10386;DHT22;34307;51.332;12.334;2023-04-12T09:10:08;12.20;43.90
10386;DHT22;34307;51.332;12.334;2023-04-12T09:12:44;12.50;44.30
10386;DHT22;34307;51.332;12.334;2023-04-12T09:15:51;12.20;42.90
10386;DHT22;34307;51.332;12.334;2023-04-12T09:18:19;12.20;43.10
10386;DHT22;34307;51.332;12.334;2023-04-12T09:20:48;12.30;43.40
10386;DHT22;34307;51.332;12.334;2023-04-12T09:23:17;12.50;42.90
10386;DHT22;34307;51.332;12.334;2023-04-12T09:25:46;12.40;42.00
10386;DHT22;34307;51.332;12.334;2023-04-12T09:28:23;12.40;40.90
10386;DHT22;34307;51.332;12.334;2023-04-12T09:30:54;12.30;39.70
10386;DHT22;34307;51.332;12.334;2023-04-12T09:33:31;12.60;40.20
10386;DHT22;34307;51.332;12.334;2023-04-12T09:36:00;12.50;39.10
10386;DHT22;34307;51.332;12.334;2023-04-12T09:38:28;12.40;39.20
10386;DHT22;34307;51.332;12.334;2023-04-12T09:40:57;12.40;38.30
10386;DHT22;34307;51.332;12.334;2023-04-12T09:43:44;12.50;38.40
10386;DHT22;34307;51.332;12.334;2023-04-12T09:46:14;12.60;38.90
10386;DHT22;34307;51.332;12.334;2023-04-12T09:48:48;12.80;37.90
10386;DHT22;34307;51.332;12.334;2023-04-12T09:51:24;12.60;38.80
10386;DHT22;34307;51.332;12.334;2023-04-12T09:53:57;12.80;37.30
10386;DHT22;34307;51.332;12.334;2023-04-12T09:56:28;13.10;35.70
10386;DHT22;34307;51.332;12.334;2023-04-12T09:59:00;13.00;35.00
10386;DHT22;34307;51.332;12.334;2023-04-12T10:01:33;13.10;35.20
10386;DHT22;34307;51.332;12.334;2023-04-12T10:04:01;13.10;35.70
10386;DHT22;34307;51.332;12.334;2023-04-12T10:06:31;13.00;34.80
10386;DHT22;34307;51.332;12.334;2023-04-12T10:09:02;13.00;35.60
10386;DHT22;34307;51.332;12.334;2023-04-12T10:11:31;13.10;35.10
10386;DHT22;34307;51.332;12.334;2023-04-12T10:14:01;13.10;34.90
10386;DHT22;34307;51.332;12.334;2023-04-12T10:16:32;13.40;33.60
10386;DHT22;34307;51.332;12.334;2023-04-12T10:19:02;13.40;33.80
10386;DHT22;34307;51.332;12.334;2023-04-12T10:21:30;13.70;33.20
10386;DHT22;34307;51.332;12.334;2023-04-12T10:23:58;13.70;31.60
10386;DHT22;34307;51.332;12.334;2023-04-12T10:26:27;13.70;33.30
10386;DHT22;34307;51.332;12.334;2023-04-12T10:29:26;13.70;31.50
10386;DHT22;34307;51.332;12.334;2023-04-12T10:31:56;13.60;32.90
10386;DHT22;34307;51.332;12.334;2023-04-12T10:34:28;13.50;32.30
10386;DHT22;34307;51.332;12.334;2023-04-12T10:36:57;13.20;30.70
10386;DHT22;34307;51.332;12.334;2023-04-12T10:39:39;13.30;32.50
10386;DHT22;34307;51.332;12.334;2023-04-12T10:42:19;13.50;32.20
10386;DHT22;34307;51.332;12.334;2023-04-12T10:44:49;13.80;31.20
10386;DHT22;34307;51.332;12.334;2023-04-12T10:50:21;13.50;31.60
10386;DHT22;34307;51.332;12.334;2023-04-12T10:55:52;13.90;29.50
10386;DHT22;34307;51.332;12.334;2023-04-12T10:58:53;13.70;30.50
10386;DHT22;34307;51.332;12.334;2023-04-12T11:01:21;13.60;31.10
10386;DHT22;34307;51.332;12.334;2023-04-12T11:04:15;13.70;30.00
10386;DHT22;34307;51.332;12.334;2023-04-12T11:06:56;13.80;27.70
10386;DHT22;34307;51.332;12.334;2023-04-12T11:09:26;13.90;27.70
10386;DHT22;34307;51.332;12.334;2023-04-12T11:11:56;14.10;27.00
10386;DHT22;34307;51.332;12.334;2023-04-12T11:14:30;13.90;26.60
10386;DHT22;34307;51.332;12.334;2023-04-12T11:17:26;14.10;27.70
10386;DHT22;34307;51.332;12.334;2023-04-12T11:19:56;13.90;25.90
10386;DHT22;34307;51.332;12.334;2023-04-12T11:22:28;13.90;25.60
10386;DHT22;34307;51.332;12.334;2023-04-12T11:25:01;13.70;26.70
10386;DHT22;34307;51.332;12.334;2023-04-12T11:27:29;13.40;26.80
10386;DHT22;34307;51.332;12.334;2023-04-12T11:29:59;13.20;28.00
10386;DHT22;34307;51.332;12.334;2023-04-12T11:32:28;13.20;27.20
10386;DHT22;34307;51.332;12.334;2023-04-12T11:34:57;13.20;28.70
10386;DHT22;34307;51.332;12.334;2023-04-12T11:37:28;13.30;28.00
10386;DHT22;34307;51.332;12.334;2023-04-12T11:39:57;13.30;28.10
10386;DHT22;34307;51.332;12.334;2023-04-12T11:42:26;13.20;28.70
10386;DHT22;34307;51.332;12.334;2023-04-12T11:44:57;13.40;28.40
10386;DHT22;34307;51.332;12.334;2023-04-12T11:47:35;13.60;28.90
10386;DHT22;34307;51.332;12.334;2023-04-12T11:50:08;13.40;28.50
10386;DHT22;34307;51.332;12.334;2023-04-12T11:52:38;13.30;29.20
10386;DHT22;34307;51.332;12.334;2023-04-12T11:55:07;13.10;28.90
10386;DHT22;34307;51.332;12.334;2023-04-12T11:57:37;13.00;29.10
10386;DHT22;34307;51.332;12.334;2023-04-12T12:00:06;13.00;29.70
10386;DHT22;34307;51.332;12.334;2023-04-12T12:02:36;12.90;30.40
10386;DHT22;34307;51.332;12.334;2023-04-12T12:05:18;12.70;31.00
10386;DHT22;34307;51.332;12.334;2023-04-12T12:07:48;12.70;32.90
10386;DHT22;34307;51.332;12.334;2023-04-12T12:10:18;12.50;33.80
10386;DHT22;34307;51.332;12.334;2023-04-12T12:13:09;12.50;35.40
10386;DHT22;34307;51.332;12.334;2023-04-12T12:15:38;12.30;36.60
10386;DHT22;34307;51.332;12.334;2023-04-12T12:18:06;12.10;38.00
10386;DHT22;34307;51.332;12.334;2023-04-12T12:20:39;12.20;40.30
10386;DHT22;34307;51.332;12.334;2023-04-12T12:23:09;12.20;40.40
10386;DHT22;34307;51.332;12.334;2023-04-12T12:25:44;12.00;41.80
10386;DHT22;34307;51.332;12.334;2023-04-12T12:28:13;11.90;43.60
10386;DHT22;34307;51.332;12.334;2023-04-12T12:30:41;12.00;46.00
10386;DHT22;34307;51.332;12.334;2023-04-12T12:33:09;11.70;48.50
10386;DHT22;34307;51.332;12.334;2023-04-12T12:35:39;11.40;52.20
10386;DHT22;34307;51.332;12.334;2023-04-12T12:38:10;11.20;55.60
10386;DHT22;34307;51.332;12.334;2023-04-12T12:40:38;11.20;59.00
10386;DHT22;34307;51.332;12.334;2023-04-12T12:43:06;10.90;61.10
10386;DHT22;34307;51.332;12.334;2023-04-12T12:45:35;10.70;65.90
10386;DHT22;34307;51.332;12.334;2023-04-12T12:48:04;10.70;72.60
10386;DHT22;34307;51.332;12.334;2023-04-12T12:50:33;10.40;73.30
10386;DHT22;34307;51.332;12.334;2023-04-12T12:53:03;10.30;79.70
10386;DHT22;34307;51.332;12.334;2023-04-12T12:55:33;10.10;81.90
10386;DHT22;34307;51.332;12.334;2023-04-12T12:58:01;10.10;83.90
10386;DHT22;34307;51.332;12.334;2023-04-12T13:00:34;10.10;88.20
10386;DHT22;34307;51.332;12.334;2023-04-12T13:03:02;9.80;88.40
10386;DHT22;34307;51.332;12.334;2023-04-12T13:05:31;9.70;92.40
10386;DHT22;34307;51.332;12.334;2023-04-12T13:07:59;9.80;95.00
10386;DHT22;34307;51.332;12.334;2023-04-12T13:10:27;9.90;95.70
10386;DHT22;34307;51.332;12.334;2023-04-12T13:12:58;10.00;97.30
10386;DHT22;34307;51.332;12.334;2023-04-12T13:15:27;10.00;98.90
10386;DHT22;34307;51.332;12.334;2023-04-12T13:17:55;10.00;98.90
10386;DHT22;34307;51.332;12.334;2023-04-12T13:20:23;10.00;99.90
10386;DHT22;34307;51.332;12.334;2023-04-12T13:22:51;9.90;99.90
10386;DHT22;34307;51.332;12.334;2023-04-12T13:25:19;9.80;99.90
10386;DHT22;34307;51.332;12.334;2023-04-12T13:27:48;9.70;99.90
10386;DHT22;34307;51.332;12.334;2023-04-12T13:30:18;9.70;99.90
10386;DHT22;34307;51.332;12.334;2023-04-12T13:32:46;9.70;99.90
10386;DHT22;34307;51.332;12.334;2023-04-12T13:35:14;9.70;99.90
10386;DHT22;34307;51.332;12.334;2023-04-12T13:37:42;9.70;99.90
10386;DHT22;34307;51.332;12.334;2023-04-12T13:40:10;9.70;99.90
10386;DHT22;34307;51.332;12.334;2023-04-12T13:42:38;9.70;99.90
10386;DHT22;34307;51.332;12.334;2023-04-12T13:45:07;9.70;99.90
10386;DHT22;34307;51.332;12.334;2023-04-12T13:47:38;9.50;99.90
10386;DHT22;34307;51.332;12.334;2023-04-12T13:50:07;9.40;99.90
10386;DHT22;34307;51.332;12.334;2023-04-12T13:52:36;9.40;99.90
10386;DHT22;34307;51.332;12.334;2023-04-12T13:55:05;9.40;99.90
10386;DHT22;34307;51.332;12.334;2023-04-12T13:57:34;9.40;99.90
10386;DHT22;34307;51.332;12.334;2023-04-12T14:00:02;9.40;99.90
10386;DHT22;34307;51.332;12.334;2023-04-12T14:02:30;9.50;99.90
10386;DHT22;34307;51.332;12.334;2023-04-12T14:04:59;9.50;99.90
10386;DHT22;34307;51.332;12.334;2023-04-12T14:07:27;9.40;99.90
10386;DHT22;34307;51.332;12.334;2023-04-12T14:09:55;9.40;99.90
10386;DHT22;34307;51.332;12.334;2023-04-12T14:12:23;9.40;99.90
10386;DHT22;34307;51.332;12.334;2023-04-12T14:14:51;9.40;99.90
10386;DHT22;34307;51.332;12.334;2023-04-12T14:17:19;9.30;99.90
10386;DHT22;34307;51.332;12.334;2023-04-12T14:19:47;9.30;99.90
10386;DHT22;34307;51.332;12.334;2023-04-12T14:22:17;9.30;99.90
10386;DHT22;34307;51.332;12.334;2023-04-12T14:24:44;9.30;99.90
10386;DHT22;34307;51.332;12.334;2023-04-12T14:27:13;9.30;99.90
10386;DHT22;34307;51.332;12.334;2023-04-12T14:29:43;9.30;99.90
10386;DHT22;34307;51.332;12.334;2023-04-12T14:32:11;9.30;99.90
10386;DHT22;34307;51.332;12.334;2023-04-12T14:34:39;9.40;99.90
10386;DHT22;34307;51.332;12.334;2023-04-12T14:37:08;9.50;99.90
10386;DHT22;34307;51.332;12.334;2023-04-12T14:39:38;9.60;99.90
10386;DHT22;34307;51.332;12.334;2023-04-12T14:42:05;9.70;99.90
10386;DHT22;34307;51.332;12.334;2023-04-12T14:44:33;9.70;99.90
10386;DHT22;34307;51.332;12.334;2023-04-12T14:47:01;9.80;99.90
10386;DHT22;34307;51.332;12.334;2023-04-12T14:49:29;9.80;99.90
10386;DHT22;34307;51.332;12.334;2023-04-12T14:51:59;9.70;99.90
10386;DHT22;34307;51.332;12.334;2023-04-12T14:54:27;9.70;99.90
10386;DHT22;34307;51.332;12.334;2023-04-12T14:56:58;9.60;99.90
10386;DHT22;34307;51.332;12.334;2023-04-12T14:59:26;9.40;99.90
10386;DHT22;34307;51.332;12.334;2023-04-12T15:01:54;9.30;99.90
10386;DHT22;34307;51.332;12.334;2023-04-12T15:04:25;9.30;99.90
10386;DHT22;34307;51.332;12.334;2023-04-12T15:06:53;9.40;99.90
10386;DHT22;34307;51.332;12.334;2023-04-12T15:09:21;9.50;99.90
10386;DHT22;34307;51.332;12.334;2023-04-12T15:11:49;9.50;99.90
10386;DHT22;34307;51.332;12.334;2023-04-12T15:14:19;9.60;99.90
10386;DHT22;34307;51.332;12.334;2023-04-12T15:16:46;9.60;99.90
10386;DHT22;34307;51.332;12.334;2023-04-12T15:19:16;9.60;99.90
10386;DHT22;34307;51.332;12.334;2023-04-12T15:21:48;9.60;99.90
10386;DHT22;34307;51.332;12.334;2023-04-12T15:24:17;9.70;99.90
10386;DHT22;34307;51.332;12.334;2023-04-12T15:26:46;9.70;99.90
10386;DHT22;34307;51.332;12.334;2023-04-12T15:29:14;9.80;99.90
10386;DHT22;34307;51.332;12.334;2023-04-12T15:31:44;9.80;99.90
10386;DHT22;34307;51.332;12.334;2023-04-12T15:34:12;9.70;99.90
10386;DHT22;34307;51.332;12.334;2023-04-12T15:36:40;9.70;99.90
10386;DHT22;34307;51.332;12.334;2023-04-12T17:53:36;10.10;99.90
10386;DHT22;34307;51.332;12.334;2023-04-12T17:56:04;10.10;99.90
10386;DHT22;34307;51.332;12.334;2023-04-12T17:58:32;10.10;99.90
10386;DHT22;34307;51.332;12.334;2023-04-12T18:01:00;10.10;99.90
10386;DHT22;34307;51.332;12.334;2023-04-12T18:03:28;10.20;99.90